Time;durP1;ratioP1;P1;durP2;ratioP2;P2;SDS_P1;SDS_P2;PMS_P1;PMS_P2;Temp;Humidity;BMP_temperature;BMP_pressure;BME280_temperature;BME280_humidity;BME280_pressure;Samples;Min_cycle;Max_cycle;Signal;HPM_P1;HPM_P2
2023/02/14 00:02:15;;;;;;;18.40;9.57;;;;;;;-142.75;100.00;79557.59;4954429;28;20394;-67
2023/02/14 00:04:42;;;;;;;;;;;;;;;-142.75;100.00;79598.94;4965506;28;20089;-67
2023/02/14 00:07:08;;;;;;;16.00;7.20;;;;;;;-142.75;100.00;79612.75;4972751;28;19917;-67
2023/02/14 00:09:33;;;;;;;;;;;;;;;-142.75;100.00;79602.88;4967319;28;20027;-68
2023/02/14 00:11:58;;;;;;;18.67;9.77;;;;;;;-142.75;100.00;79579.25;4952737;28;20000;-64
2023/02/14 00:17:07;;;;;;;23.43;11.53;;;;;;;-142.75;100.00;79533.94;4954207;28;20394;-68
2023/02/14 00:19:34;;;;;;;;;;;;;;;-142.75;100.00;79524.09;4953205;28;20012;-67
2023/02/14 00:22:00;;;;;;;20.52;11.32;;;;;;;-142.75;100.00;79528.03;4952634;28;19921;-67
2023/02/14 00:24:25;;;;;;;;;;;;;;;-142.75;100.00;79498.47;4953836;28;20019;-67
2023/02/14 00:26:52;;;;;;;21.13;11.57;;;;;;;-142.75;100.00;79480.75;4953971;28;19914;-67
2023/02/14 00:29:20;;;;;;;21.73;11.67;;;;;;;-142.75;100.00;79474.84;4953752;28;20106;-67
2023/02/14 00:31:46;;;;;;;23.57;11.97;;;;;;;-142.75;100.00;79465.00;4952529;28;20384;-67
2023/02/14 00:34:11;;;;;;;;;;;;;;;-142.75;100.00;79459.09;4954245;28;20027;-67
2023/02/14 00:36:37;;;;;;;20.87;11.60;;;;;;;-142.75;100.00;79449.25;4953750;28;19911;-67
2023/02/14 00:39:06;;;;;;;;;;;;;;;-142.75;100.00;79441.34;4955832;28;20019;-66
2023/02/14 00:41:32;;;;;;;31.37;14.37;;;;;;;-142.75;100.00;79457.13;4972940;28;19920;-67
2023/02/14 00:43:57;;;;;;;;;;;;;;;-142.75;100.00;79476.81;4952847;28;20034;-68
2023/02/14 00:46:24;;;;;;;25.50;13.50;;;;;;;-142.75;100.00;79470.91;4968466;28;20009;-67
2023/02/14 00:48:50;;;;;;;29.53;13.23;;;;;;;-142.75;100.00;79486.66;4953326;28;20027;-68
2023/02/14 00:51:17;;;;;;;25.90;14.80;;;;;;;-142.75;100.00;79506.38;4951319;28;20031;-67
2023/02/14 00:53:43;;;;;;;26.23;12.87;;;;;;;-142.75;100.00;79494.53;4960400;28;20027;-67
2023/02/14 00:56:08;;;;;;;;;;;;;;;-142.75;100.00;79500.47;4962149;28;20026;-67
2023/02/14 00:58:33;;;;;;;23.50;12.37;;;;;;;-142.75;100.00;79498.47;4955110;28;19941;-67
2023/02/14 01:00:59;;;;;;;;;;;;;;;-142.75;100.00;79498.47;4972969;28;20042;-67
2023/02/14 01:03:25;;;;;;;20.43;11.10;;;;;;;-142.75;100.00;79504.41;4972444;28;20338;-68
2023/02/14 01:05:51;;;;;;;16.73;9.60;;;;;;;-142.75;100.00;79516.22;4972452;28;20019;-67
2023/02/14 01:08:16;;;;;;;;;;;;;;;-142.75;100.00;79528.03;4972633;28;20018;-68
2023/02/14 01:10:42;;;;;;;20.57;11.20;;;;;;;-142.75;100.00;79537.88;4952786;28;19910;-67
2023/02/14 01:13:08;;;;;;;;;;;;;;;-142.75;100.00;79524.09;4963440;28;20495;-66
2023/02/14 01:15:38;;;;;;;13.73;7.97;;;;;;;-142.75;100.00;79537.88;4954947;28;19956;-67
2023/02/14 01:18:03;;;;;;;11.17;7.10;;;;;;;-142.75;100.00;79563.50;4972105;28;20046;-67
2023/02/14 01:20:29;;;;;;;;;;;;;;;-142.75;100.00;79571.38;4972610;28;20062;-67
2023/02/14 01:22:54;;;;;;;14.10;8.20;;;;;;;-142.75;100.00;79579.25;4972269;28;19922;-67
2023/02/14 01:25:19;;;;;;;;;;;;;;;-142.75;100.00;79569.41;4969538;28;20015;-68
2023/02/14 01:27:44;;;;;;;14.37;8.20;;;;;;;-142.75;100.00;79581.22;4952686;28;19914;-67
2023/02/14 01:30:10;;;;;;;;;;;;;;;-142.75;100.00;79587.13;4953378;28;20380;-67
2023/02/14 01:32:35;;;;;;;14.77;8.13;;;;;;;-142.75;100.00;79563.50;4952996;28;20264;-67
2023/02/14 01:35:00;;;;;;;;;;;;;;;-142.75;100.00;79539.84;4952383;28;20107;-65
2023/02/14 01:37:26;;;;;;;16.73;9.33;;;;;;;-142.75;100.00;79539.84;4952706;28;19910;-68
2023/02/14 01:39:52;;;;;;;;;;;;;;;-142.75;100.00;79530.00;4953176;28;20039;-67
2023/02/14 01:42:17;;;;;;;24.47;11.93;;;;;;;-142.75;100.00;79514.25;4962220;28;19914;-67
2023/02/14 01:44:46;;;;;;;;;;;;;;;-142.75;100.00;79516.22;4947728;28;20026;-67
2023/02/14 01:47:12;;;;;;;19.40;10.93;;;;;;;-142.75;100.00;79535.91;4950049;28;20326;-67
2023/02/14 01:49:42;;;;;;;19.43;10.33;;;;;;;-142.75;100.00;79518.19;4952444;28;20026;-67
2023/02/14 01:52:14;;;;;;;23.30;12.27;;;;;;;-142.75;100.00;79512.28;4951267;28;20031;-67
2023/02/14 01:54:47;;;;;;;15.50;9.33;;;;;;;-142.75;100.00;79547.72;4952496;28;20491;-67
2023/02/14 01:57:15;;;;;;;16.47;9.90;;;;;;;-142.75;100.00;79528.03;4946948;28;20023;-67
2023/02/14 01:59:50;;;;;;;17.30;9.93;;;;;;;-142.75;100.00;79516.22;4971663;28;20462;-67
2023/02/14 02:02:22;;;;;;;20.53;10.30;;;;;;;-142.75;100.00;79520.16;4971644;28;20034;-66
2023/02/14 02:04:47;;;;;;;23.40;11.23;;;;;;;-142.75;100.00;79512.28;4963720;28;20023;-67
2023/02/14 02:07:16;;;;;;;;;;;;;;;-142.75;100.00;79506.38;4972125;28;20037;-67
2023/02/14 02:09:47;;;;;;;16.33;8.87;;;;;;;-142.75;100.00;79522.13;4971608;28;19917;-67
2023/02/14 02:12:13;;;;;;;16.03;8.50;;;;;;;-142.75;100.00;79539.84;4966508;28;20081;-67
2023/02/14 02:14:38;;;;;;;;;;;;;;;-142.75;100.00;79541.81;4963820;28;20027;-67
2023/02/14 02:17:42;;;;;;;15.23;8.23;;;;;;;-142.75;100.00;79541.81;4952383;28;19914;-67
2023/02/14 02:20:25;;;;;;;15.60;9.53;;;;;;;-142.75;100.00;79535.91;4934813;28;20391;-67
2023/02/14 02:23:07;;;;;;;13.67;8.23;;;;;;;-142.75;100.00;79557.59;4969775;28;20030;-67
2023/02/14 02:26:01;;;;;;;11.33;6.60;;;;;;;-142.75;100.00;79575.31;4954152;28;20030;-64
2023/02/14 02:28:54;;;;;;;14.67;7.47;;;;;;;-142.75;100.00;79581.22;4902095;28;20104;-68
2023/02/14 02:31:33;;;;;;;18.67;9.70;;;;;;;-142.75;100.00;79567.44;4971551;28;20044;-67
2023/02/14 02:34:26;;;;;;;20.43;11.03;;;;;;;-142.75;100.00;79567.44;4949975;28;20037;-67
2023/02/14 02:37:17;;;;;;;23.10;11.83;;;;;;;-142.75;100.00;79571.38;4958222;28;20019;-67
2023/02/14 02:40:10;;;;;;;22.10;10.63;;;;;;;-142.75;100.00;79581.22;4929260;28;20581;-66
2023/02/14 02:42:55;;;;;;;15.63;8.70;;;;;;;-142.75;100.00;79581.22;4952233;28;20096;-67
2023/02/14 02:46:46;;;;;;;15.90;8.07;;;;;;;-142.75;100.00;79587.13;4951064;28;20369;-67
2023/02/14 02:48:33;;;;;;;15.40;8.30;;;;;;;-142.75;100.00;79602.88;4955187;28;20942;-67
2023/02/14 02:53:54;;;;;;;20.63;10.53;;;;;;;-142.75;100.00;79589.09;4968269;28;20297;-67
2023/02/14 02:56:48;;;;;;;17.43;9.23;;;;;;;-142.75;100.00;79581.22;4954595;28;20061;-67
2023/02/14 02:59:29;;;;;;;18.07;10.10;;;;;;;-142.75;100.00;79583.19;4955422;28;20015;-67
2023/02/14 03:02:06;;;;;;;18.03;9.53;;;;;;;-142.75;100.00;79596.97;4954307;28;20381;-67
2023/02/14 03:04:53;;;;;;;17.00;8.90;;;;;;;-142.75;100.00;79579.25;4955442;28;20106;-67
2023/02/14 03:07:33;;;;;;;17.47;9.50;;;;;;;-142.75;100.00;79579.25;4970063;28;20023;-66
2023/02/14 03:10:10;;;;;;;18.83;9.80;;;;;;;-142.75;100.00;79579.25;4974722;28;20019;-67
2023/02/14 03:12:44;;;;;;;17.60;9.82;;;;;;;-142.75;100.00;79573.34;4957272;28;20538;-66
2023/02/14 03:15:50;;;;;;;19.90;10.73;;;;;;;-142.75;100.00;79565.47;4974570;28;20427;-67
2023/02/14 03:21:36;;;;;;;21.33;10.00;;;;;;;-142.75;100.00;79579.25;4974559;28;20166;-67
2023/02/14 03:24:13;;;;;;;16.63;8.93;;;;;;;-142.75;100.00;79567.44;4974335;28;20026;-67
2023/02/14 03:26:56;;;;;;;15.13;9.50;;;;;;;-142.75;100.00;79593.03;4956868;28;20075;-67
2023/02/14 03:30:00;;;;;;;19.40;9.57;;;;;;;-142.75;100.00;79583.19;4954835;28;20030;-67
2023/02/14 03:32:47;;;;;;;17.50;8.97;;;;;;;-142.75;100.00;79596.97;4953250;28;20428;-66
2023/02/14 03:35:31;;;;;;;21.63;9.68;;;;;;;-142.75;100.00;79614.72;4963486;28;20039;-67
2023/02/14 03:38:08;;;;;;;20.07;10.60;;;;;;;-142.75;100.00;79606.84;4973865;28;20038;-66
2023/02/14 03:40:40;;;;;;;16.90;10.03;;;;;;;-142.75;100.00;79614.72;4974154;28;20061;-65
2023/02/14 03:43:15;;;;;;;18.00;9.87;;;;;;;-142.75;100.00;79626.53;4974009;28;20130;-66
2023/02/14 03:45:50;;;;;;;21.33;9.87;;;;;;;-142.75;100.00;79626.53;4974063;28;20027;-67
2023/02/14 03:48:19;;;;;;;16.75;9.30;;;;;;;-142.75;100.00;79626.53;4974017;28;20424;-66
2023/02/14 03:50:49;;;;;;;18.73;10.20;;;;;;;-142.75;100.00;79598.94;4956555;28;20015;-67
2023/02/14 03:53:19;;;;;;;19.40;10.27;;;;;;;-142.75;100.00;79587.13;4973666;28;20468;-67
2023/02/14 03:56:25;;;;;;;22.00;11.33;;;;;;;-142.75;100.00;79579.25;4973852;28;20550;-67
2023/02/14 03:58:57;;;;;;;16.87;9.27;;;;;;;-142.75;100.00;79567.44;4934058;28;20103;-67
2023/02/14 04:01:46;;;;;;;14.50;8.80;;;;;;;-142.75;100.00;79587.13;4973571;28;20058;-68
2023/02/14 04:04:14;;;;;;;13.47;7.93;;;;;;;-142.75;100.00;79587.13;4973726;28;20105;-67
2023/02/14 04:06:40;;;;;;;15.00;7.93;;;;;;;-142.75;100.00;79583.19;4955745;28;20027;-67
2023/02/14 04:09:05;;;;;;;;;;;;;;;-142.75;100.00;79604.88;4953198;28;20567;-66
2023/02/14 04:11:33;;;;;;;10.27;5.53;;;;;;;-142.75;100.00;79616.69;4954258;28;19917;-67
2023/02/14 04:13:59;;;;;;;14.13;7.00;;;;;;;-142.75;100.00;79620.63;4956094;28;20053;-67
2023/02/14 04:16:25;;;;;;;;;;;;;;;-142.75;100.00;79626.53;4961146;28;20074;-67
2023/02/14 04:21:34;;;;;;;15.40;7.63;;;;;;;-142.75;100.00;79626.53;4973437;28;20081;-64
2023/02/14 04:23:59;;;;;;;;;;;;;;;-142.75;100.00;79618.66;4965970;28;20027;-68
2023/02/14 04:26:24;;;;;;;14.87;8.67;;;;;;;-142.75;100.00;79630.47;4952862;28;20347;-67
2023/02/14 04:28:50;;;;;;;;;;;;;;;-142.75;100.00;79648.19;4954162;28;20031;-67
2023/02/14 04:31:16;;;;;;;13.60;7.63;;;;;;;-142.75;100.00;79652.13;4954015;28;19922;-67
2023/02/14 04:33:43;;;;;;;13.80;7.77;;;;;;;-142.75;100.00;79642.28;4953810;28;20023;-66
2023/02/14 04:36:08;;;;;;;16.70;7.80;;;;;;;-142.75;100.00;79646.22;4952618;28;20122;-67
2023/02/14 04:38:33;;;;;;;;;;;;;;;-142.75;100.00;79669.88;4954017;28;20054;-66
2023/02/14 04:40:59;;;;;;;14.60;7.43;;;;;;;-142.75;100.00;79669.88;4952406;28;20150;-66
2023/02/14 04:43:24;;;;;;;;;;;;;;;-142.75;100.00;79679.72;4952888;28;20121;-67
2023/02/14 04:45:49;;;;;;;13.80;7.13;;;;;;;-142.75;100.00;79669.88;4953639;28;20360;-67
2023/02/14 04:48:14;;;;;;;;;;;;;;;-142.75;100.00;79656.09;4953800;28;20440;-67
2023/02/14 04:50:40;;;;;;;13.23;7.90;;;;;;;-142.75;100.00;79660.03;4953640;28;19973;-66
2023/02/14 04:53:05;;;;;;;;;;;;;;;-142.75;100.00;79646.22;4953874;28;20101;-67
2023/02/14 04:55:30;;;;;;;17.80;7.93;;;;;;;-142.75;100.00;79654.13;4960159;28;19914;-66
2023/02/14 04:57:55;;;;;;;;;;;;;;;-142.75;100.00;79691.53;4952390;28;20042;-67
2023/02/14 05:00:21;;;;;;;18.80;6.93;;;;;;;-142.75;100.00;79689.56;4953287;28;19910;-66
2023/02/14 05:02:46;;;;;;;25.03;8.03;;;;;;;-142.75;100.00;79697.44;4953407;28;20403;-67
2023/02/14 05:05:11;;;;;;;;;;;;;;;-142.75;100.00;79697.44;4953710;28;20491;-68
2023/02/14 05:07:37;;;;;;;15.90;7.50;;;;;;;-142.75;100.00;79734.88;4953020;28;19918;-66
2023/02/14 05:10:03;;;;;;;;;;;;;;;-142.75;100.00;79744.72;4953639;28;20123;-67
2023/02/14 05:12:28;;;;;;;19.57;7.40;;;;;;;-142.75;100.00;79752.63;4953209;28;19957;-67
2023/02/14 05:14:54;;;;;;;;;;;;;;;-142.75;100.00;79750.66;4952376;28;20066;-67
2023/02/14 05:17:20;;;;;;;16.87;7.23;;;;;;;-142.75;100.00;79736.84;4954966;28;20262;-67
2023/02/14 05:19:45;;;;;;;;;;;;;;;-142.75;100.00;79752.63;4955399;28;20027;-67
2023/02/14 05:22:10;;;;;;;10.37;6.27;;;;;;;-142.75;100.00;79738.81;4964261;28;19921;-68
2023/02/14 05:24:35;;;;;;;;;;;;;;;-142.75;100.00;79740.78;4955207;28;20064;-64
2023/02/14 05:27:01;;;;;;;20.73;7.73;;;;;;;-142.75;100.00;79740.78;4972205;28;19942;-68
2023/02/14 05:29:26;;;;;;;;;;;;;;;-142.75;100.00;79744.72;4972310;28;20054;-67
2023/02/14 05:31:52;;;;;;;15.63;7.50;;;;;;;-142.75;100.00;79754.59;4972193;28;19944;-66
2023/02/14 05:34:17;;;;;;;;;;;;;;;-142.75;100.00;79744.72;4968918;28;20023;-66
2023/02/14 05:36:43;;;;;;;15.60;8.13;;;;;;;-142.75;100.00;79752.63;4952957;28;21362;-66
2023/02/14 05:39:08;;;;;;;;;;;;;;;-142.75;100.00;79734.88;4952890;28;20155;-67
2023/02/14 05:41:33;;;;;;;13.23;7.60;;;;;;;-142.75;100.00;79762.47;4951509;28;20287;-66
2023/02/14 05:43:58;;;;;;;;;;;;;;;-142.75;100.00;79754.59;4953053;28;20499;-66
2023/02/14 05:46:24;;;;;;;12.20;7.50;;;;;;;-142.75;100.00;79762.47;4956283;28;19941;-67
2023/02/14 05:48:49;;;;;;;;;;;;;;;-142.75;100.00;79748.66;4972078;28;20061;-67
2023/02/14 05:51:14;;;;;;;12.23;7.50;;;;;;;-142.75;100.00;79744.72;4971922;28;20005;-66
2023/02/14 05:53:40;;;;;;;;;;;;;;;-142.75;100.00;79728.97;4955451;28;20022;-67
2023/02/14 05:56:05;;;;;;;19.60;7.30;;;;;;;-142.75;100.00;79748.66;4971945;28;19984;-65
2023/02/14 05:58:31;;;;;;;;;;;;;;;-142.75;100.00;79764.44;4954717;28;20184;-67
2023/02/14 06:00:57;;;;;;;25.67;7.43;;;;;;;-142.75;100.00;79768.38;4971845;28;20398;-66
2023/02/14 06:03:22;;;;;;;;;;;;;;;-142.75;100.00;79760.50;4972355;28;20027;-67
2023/02/14 06:05:47;;;;;;;13.87;6.93;;;;;;;-142.75;100.00;79784.13;4971918;28;19910;-66
2023/02/14 06:08:12;;;;;;;;;;;;;;;-142.75;100.00;79797.94;4971929;28;20023;-67
2023/02/14 06:10:38;;;;;;;11.77;7.17;;;;;;;-142.75;100.00;79815.66;4951357;28;20391;-66
2023/02/14 06:13:07;;;;;;;;;;;;;;;-142.75;100.00;79815.66;4952868;28;20033;-66
2023/02/14 06:15:33;;;;;;;10.27;7.27;;;;;;;-142.75;100.00;79831.41;4951074;28;20317;-66
2023/02/14 06:17:59;;;;;;;10.00;6.10;;;;;;;-142.75;100.00;79823.53;4952204;28;20110;-66
2023/02/14 06:20:24;;;;;;;;;;;;;;;-142.75;100.00;79819.59;4952719;28;20273;-67
2023/02/14 06:22:50;;;;;;;13.03;7.47;;;;;;;-142.75;100.00;79811.72;4968823;28;20004;-67
2023/02/14 06:25:16;;;;;;;12.43;8.03;;;;;;;-142.75;100.00;79803.84;4975430;28;20054;-66
2023/02/14 06:27:42;;;;;;;;;;;;;;;-142.75;100.00;79797.94;4975548;28;20058;-66
2023/02/14 06:30:08;;;;;;;10.90;7.13;;;;;;;-142.75;100.00;79813.69;4956563;28;19984;-67
2023/02/14 06:32:33;;;;;;;13.83;8.17;;;;;;;-142.75;100.00;79815.66;4966650;28;20022;-66
2023/02/14 06:34:58;;;;;;;;;;;;;;;-142.75;100.00;79807.78;4956409;28;20035;-66
2023/02/14 06:37:24;;;;;;;12.93;8.53;;;;;;;-142.75;100.00;79803.84;4954598;28;20448;-66
2023/02/14 06:39:49;;;;;;;;;;;;;;;-142.75;100.00;79788.06;4974829;28;20029;-66
2023/02/14 06:42:14;;;;;;;12.77;7.90;;;;;;;-142.75;100.00;79797.94;4974998;28;19964;-66
2023/02/14 06:44:40;;;;;;;15.17;9.00;;;;;;;-142.75;100.00;79788.06;4975074;28;20030;-66
2023/02/14 06:47:06;;;;;;;;;;;;;;;-142.75;100.00;79780.19;4975425;28;20171;-67
2023/02/14 06:49:32;;;;;;;13.07;6.65;;;;;;;-142.75;100.00;79792.00;4944814;28;19918;-67
2023/02/14 06:51:57;;;;;;;;;;;;;;;-142.75;100.00;79786.09;4968115;28;20007;-66
2023/02/14 06:54:22;;;;;;;23.23;7.60;;;;;;;-142.75;100.00;79784.13;4974713;28;20279;-66
2023/02/14 06:56:47;;;;;;;;;;;;;;;-142.75;100.00;79809.75;4975336;28;20062;-67
2023/02/14 06:59:13;;;;;;;18.00;9.17;;;;;;;-142.75;100.00;79784.13;4974044;28;19913;-66
2023/02/14 07:01:38;;;;;;;;;;;;;;;-142.75;100.00;79780.19;4951891;28;20023;-66
2023/02/14 07:04:03;;;;;;;23.77;8.70;;;;;;;-142.75;100.00;79809.75;4971648;28;19917;-66
2023/02/14 07:06:29;;;;;;;;;;;;;;;-142.75;100.00;79799.91;4962728;28;20031;-66
2023/02/14 07:08:54;;;;;;;13.80;8.53;;;;;;;-142.75;100.00;79788.06;4953728;28;19921;-66
2023/02/14 07:11:19;;;;;;;13.77;8.90;;;;;;;-142.75;100.00;79778.22;4955276;28;20495;-66
2023/02/14 07:13:44;;;;;;;;;;;;;;;-142.75;100.00;79756.56;4955583;28;20030;-67
2023/02/14 07:16:10;;;;;;;18.90;9.83;;;;;;;-142.75;100.00;79752.63;4955276;28;19910;-64
2023/02/14 07:18:35;;;;;;;;;;;;;;;-142.75;100.00;79746.69;4955437;28;20026;-67
2023/02/14 07:21:01;;;;;;;31.20;9.73;;;;;;;-142.75;100.00;79764.44;4955131;28;20268;-66
2023/02/14 07:23:26;;;;;;;;;;;;;;;-142.75;100.00;79754.59;4955630;28;20479;-67
2023/02/14 07:25:51;;;;;;;16.17;8.77;;;;;;;-142.75;100.00;79772.31;4955085;28;19910;-67
2023/02/14 07:28:17;;;;;;;25.87;8.70;;;;;;;-142.75;100.00;79795.94;4954944;28;20024;-66
2023/02/14 07:30:42;;;;;;;;;;;;;;;-142.75;100.00;79782.16;4955549;28;20023;-67
2023/02/14 07:33:07;;;;;;;12.93;8.93;;;;;;;-142.75;100.00;79786.09;4953734;28;20345;-66
2023/02/14 07:35:34;;;;;;;;;;;;;;;-142.75;100.00;79780.19;4953364;28;20037;-66
2023/02/14 07:37:59;;;;;;;37.33;9.77;;;;;;;-142.75;100.00;79784.13;4954192;28;19945;-66
2023/02/14 07:40:25;;;;;;;;;;;;;;;-142.75;100.00;79780.19;4951539;28;20078;-66
2023/02/14 07:42:55;;;;;;;37.63;8.23;;;;;;;-142.75;100.00;79795.94;4954378;28;19938;-64
2023/02/14 07:45:21;;;;;;;22.00;8.77;;;;;;;-142.75;100.00;79780.19;4954238;28;20057;-67
2023/02/14 07:47:52;;;;;;;35.17;9.57;;;;;;;-142.75;100.00;79744.72;4964360;28;20030;-66
2023/02/14 07:50:18;;;;;;;14.60;9.13;;;;;;;-142.75;100.00;79732.91;4951824;28;20106;-67
2023/02/14 07:52:44;;;;;;;16.20;9.10;;;;;;;-142.75;100.00;79701.38;4954135;28;20041;-66
2023/02/14 07:55:09;;;;;;;;;;;;;;;-142.75;100.00;79677.75;4954522;28;20098;-67
2023/02/14 07:57:35;;;;;;;14.83;8.77;;;;;;;-142.75;100.00;79638.34;4949001;28;19929;-66
2023/02/14 08:00:00;;;;;;;;;;;;;;;-142.75;100.00;79600.91;4954922;28;20205;-65
2023/02/14 08:02:25;;;;;;;17.03;10.57;;;;;;;-142.75;100.00;79561.53;4956287;28;20005;-65
2023/02/14 08:04:50;;;;;;;;;;;;;;;-142.75;100.00;79484.69;4974040;28;20026;-65
2023/02/14 08:07:16;;;;;;;26.20;12.83;;;;;;;-142.75;100.00;79441.34;4973461;28;19932;-67
2023/02/14 08:09:41;;;;;;;;;;;;;;;-142.75;100.00;79380.28;4973716;28;20027;-65
2023/02/14 08:17:55;;;;;;;20.23;12.60;;;;;;;-142.75;100.00;79394.09;4932847;29;20069;-67
2023/02/14 08:20:21;;;;;;;17.07;10.37;;;;;;;-142.75;100.00;79431.50;4943411;28;20037;-67
2023/02/14 08:22:46;;;;;;;;;;;;;;;-142.75;100.00;79400.00;4954440;28;20030;-67
2023/02/14 08:25:11;;;;;;;19.83;11.43;;;;;;;-142.75;100.00;79425.59;4952758;28;19917;-66
2023/02/14 08:27:36;;;;;;;;;;;;;;;-142.75;100.00;79396.06;4963468;28;20037;-67
2023/02/14 08:30:02;;;;;;;16.43;10.10;;;;;;;-142.75;100.00;79419.69;4973056;28;19909;-66
2023/02/14 08:32:27;;;;;;;;;;;;;;;-142.75;100.00;79376.34;4968637;28;20505;-67
2023/02/14 08:34:53;;;;;;;19.97;11.50;;;;;;;-142.75;100.00;79370.44;4952525;28;19981;-67
2023/02/14 08:37:18;;;;;;;;;;;;;;;-142.75;100.00;79336.94;4968459;28;20027;-66
2023/02/14 08:39:43;;;;;;;19.77;11.87;;;;;;;-142.75;100.00;79307.41;4972801;28;20282;-64
2023/02/14 08:42:08;;;;;;;;;;;;;;;-142.75;100.00;79291.66;4943499;28;20397;-66
2023/02/14 08:44:34;;;;;;;22.33;13.13;;;;;;;-142.75;100.00;79285.75;4956484;28;19917;-68
2023/02/14 08:46:59;;;;;;;;;;;;;;;-142.75;100.00;79271.94;4949498;28;20015;-66
2023/02/14 08:49:24;;;;;;;22.63;13.43;;;;;;;-142.75;100.00;79252.25;4953170;28;19923;-66
2023/02/14 08:51:49;;;;;;;;;;;;;;;-142.75;100.00;79195.13;4954024;28;20027;-66
2023/02/14 08:54:15;;;;;;;25.53;13.43;;;;;;;-142.75;100.00;79161.66;4953563;28;20037;-66
2023/02/14 08:56:40;;;;;;;;;;;;;;;-142.75;100.00;79134.06;4958499;28;20046;-67
2023/02/14 08:59:05;;;;;;;30.63;15.30;;;;;;;-142.75;100.00;79153.75;4948678;28;20000;-66
2023/02/14 09:01:31;;;;;;;;;;;;;;;-142.75;100.00;79059.22;4955390;28;20034;-67
2023/02/14 09:03:56;;;;;;;30.63;15.87;;;;;;;-142.75;100.00;78994.22;4954381;28;19910;-66
2023/02/14 09:06:22;;;;;;;;;;;;;;;-142.75;100.00;79008.00;4950561;28;20031;-67
2023/02/14 09:08:47;;;;;;;31.40;16.73;;;;;;;-142.75;100.00;78980.44;4953431;28;19917;-69
2023/02/14 09:11:17;;;;;;;32.30;17.03;;;;;;;-142.75;100.00;78911.50;4955765;28;20493;-66
2023/02/14 09:13:42;;;;;;;33.53;18.33;;;;;;;-142.75;100.00;78931.19;4955063;28;20030;-65
2023/02/14 09:16:09;;;;;;;;;;;;;;;-142.75;100.00;78883.91;4952398;28;20035;-65
2023/02/14 09:18:35;;;;;;;37.47;18.17;;;;;;;-142.75;100.00;78893.78;4936910;28;19965;-67
2023/02/14 09:21:00;;;;;;;32.15;18.60;;;;;;;-142.75;100.00;78915.44;4942544;28;20031;-67
2023/02/14 09:23:25;;;;;;;;;;;;;;;-142.75;100.00;78826.81;4950719;28;20027;-67
2023/02/14 09:25:51;;;;;;;29.05;16.92;;;;;;;-142.75;100.00;78783.47;4945761;28;19989;-67
2023/02/14 09:28:16;;;;;;;;;;;;;;;-142.75;100.00;78748.03;4950306;28;20050;-67
2023/02/14 09:30:41;;;;;;;31.67;17.90;;;;;;;-142.75;100.00;78728.31;4955160;28;19917;-66
2023/02/14 09:33:08;;;;;;;29.38;15.88;;;;;;;-142.75;100.00;78720.44;4953410;28;20449;-65
2023/02/14 09:35:33;;;;;;;;;;;;;;;-142.75;100.00;78704.69;4953127;28;20066;-66
2023/02/14 09:37:58;;;;;;;34.38;17.50;;;;;;;-142.75;100.00;78663.31;4952983;28;19957;-67
2023/02/14 09:40:24;;;;;;;32.65;18.13;;;;;;;-142.75;100.00;78627.88;4953532;28;20055;-67
2023/02/14 09:42:59;;;;;;;32.95;17.88;;;;;;;-142.75;100.00;78606.22;4964651;28;20031;-68
2023/02/14 09:45:27;;;;;;;32.35;18.08;;;;;;;-142.75;100.00;78659.38;4956202;28;20031;-67
2023/02/14 09:48:11;;;;;;;36.15;18.13;;;;;;;-142.75;100.00;78641.66;4953211;28;20067;-68
2023/02/14 09:50:53;;;;;;;37.63;18.85;;;;;;;-142.75;100.00;78641.66;4950811;28;20054;-66
2023/02/14 09:53:37;;;;;;;40.38;19.40;;;;;;;-142.75;100.00;78618.03;4951749;28;20027;-68
2023/02/14 09:56:11;;;;;;;34.47;19.10;;;;;;;-142.75;100.00;78596.38;4968463;28;20031;-67
2023/02/14 09:58:59;;;;;;;35.42;18.67;;;;;;;-142.75;100.00;78578.63;4971009;28;20033;-68
2023/02/14 10:01:34;;;;;;;36.40;18.08;;;;;;;-142.75;100.00;78555.00;4971794;28;20027;-67
2023/02/14 10:04:27;;;;;;;34.42;17.63;;;;;;;-142.75;100.00;78511.69;4963619;28;20062;-68
2023/02/14 10:06:59;;;;;;;35.42;19.40;;;;;;;-142.75;100.00;78509.72;4954364;28;20499;-68
2023/02/14 10:09:49;;;;;;;37.17;20.05;;;;;;;-142.75;100.00;78501.84;4954128;28;20026;-66
2023/02/14 10:12:32;;;;;;;38.20;18.77;;;;;;;-142.75;100.00;78493.97;4952087;28;20024;-66
2023/02/14 10:15:03;;;;;;;35.63;17.58;;;;;;;-142.75;100.00;78503.81;4951213;28;20054;-67
2023/02/14 10:17:45;;;;;;;36.83;18.60;;;;;;;-142.75;100.00;78505.78;4952308;28;20031;-68
2023/02/14 10:20:19;;;;;;;35.85;18.90;;;;;;;-142.75;100.00;78470.31;4952962;28;20024;-65
2023/02/14 10:22:55;;;;;;;37.15;19.52;;;;;;;-142.75;100.00;78531.38;4952357;28;20514;-67
2023/02/14 10:26:01;;;;;;;37.42;18.08;;;;;;;-142.75;100.00;78519.56;4953963;28;20379;-68
2023/02/14 10:28:44;;;;;;;36.42;17.75;;;;;;;-142.75;100.00;78450.63;4954070;28;20041;-68
2023/02/14 10:31:12;;;;;;;36.85;19.83;;;;;;;-142.75;100.00;78425.03;4952375;28;20099;-68
2023/02/14 10:33:41;;;;;;;34.00;19.30;;;;;;;-142.75;100.00;78371.84;4952223;28;20030;-68
2023/02/14 10:36:44;;;;;;;43.38;20.30;;;;;;;-142.75;100.00;78354.13;4952188;28;20027;-68
2023/02/14 10:39:44;;;;;;;38.08;18.58;;;;;;;-142.75;100.00;78271.41;4892677;29;20028;-68
2023/02/14 10:42:09;;;;;;;36.08;18.88;;;;;;;-142.75;100.00;78306.88;4952004;28;20476;-68
2023/02/14 10:44:58;;;;;;;31.63;18.75;;;;;;;-142.75;100.00;78312.78;4952107;28;20085;-68
2023/02/14 10:47:33;;;;;;;35.67;18.60;;;;;;;-142.75;100.00;78271.41;4952057;28;20031;-68
2023/02/14 10:50:24;;;;;;;38.20;19.05;;;;;;;-142.75;98.79;78204.47;4951041;28;20038;-68
2023/02/14 10:53:15;;;;;;;35.40;19.15;;;;;;;-142.75;96.85;78172.94;4951729;28;20039;-68
2023/02/14 10:56:01;;;;;;;36.55;19.33;;;;;;;-142.75;95.39;78318.69;4952169;28;20019;-68
2023/02/14 10:58:30;;;;;;;33.13;18.85;;;;;;;-142.75;98.62;78322.63;4953244;28;20034;-68
2023/02/14 11:01:10;;;;;;;34.85;18.30;;;;;;;-142.75;100.00;78348.22;4950671;28;20039;-68
2023/02/14 11:03:38;;;;;;;32.88;18.00;;;;;;;-142.75;100.00;78310.81;4950415;28;20027;-68
2023/02/14 11:06:04;;;;;;;35.60;19.83;;;;;;;-142.75;97.19;78204.47;4951958;28;20074;-68
2023/02/14 11:08:38;;;;;;;36.47;19.02;;;;;;;-142.75;90.89;78125.69;4953148;28;20015;-68
2023/02/14 11:11:21;;;;;;;33.67;18.30;;;;;;;-142.75;88.53;78172.94;4955272;28;20078;-66
2023/02/14 11:13:47;;;;;;;31.95;18.40;;;;;;;-142.75;91.70;78139.47;4955295;28;20026;-68
2023/02/14 11:16:39;;;;;;;35.30;18.40;;;;;;;-142.75;89.07;78155.22;4955314;28;20388;-67
2023/02/14 11:19:13;;;;;;;33.20;18.05;;;;;;;-142.75;89.48;78192.66;4952010;28;20065;-68
2023/02/14 11:21:40;;;;;;;31.05;18.48;;;;;;;-142.75;89.29;78094.19;4958564;28;20023;-68
2023/02/14 11:24:29;;;;;;;38.35;19.92;;;;;;;-142.75;85.21;77979.97;4974505;28;20480;-66
2023/02/14 11:26:59;;;;;;;35.03;19.45;;;;;;;-142.75;80.11;77905.13;4974533;28;20019;-66
2023/02/14 11:29:32;;;;;;;34.38;18.73;;;;;;;-142.75;80.54;77952.41;4974185;28;20031;-66
2023/02/14 11:32:09;;;;;;;34.40;17.95;;;;;;;-142.75;81.57;77952.41;4974320;28;20042;-67
2023/02/14 11:34:39;;;;;;;33.90;18.42;;;;;;;-142.75;78.28;77818.50;4955999;28;20026;-66
2023/02/14 11:37:32;;;;;;;31.25;18.30;;;;;;;-142.75;76.22;77824.41;4957068;28;20030;-67
2023/02/14 11:39:59;;;;;;;33.72;18.13;;;;;;;-142.75;78.90;77938.63;4974198;28;20030;-66
2023/02/14 11:42:44;;;;;;;33.30;18.00;;;;;;;-142.75;80.94;77964.22;4967251;28;20546;-66
2023/02/14 11:45:30;;;;;;;39.72;19.83;;;;;;;-142.75;79.38;77901.19;4953886;28;20019;-66
2023/02/14 11:48:16;;;;;;;32.78;18.58;;;;;;;-142.75;77.92;77915.00;4954488;28;20035;-66
2023/02/14 11:50:44;;;;;;;34.00;18.92;;;;;;;-142.75;78.15;77883.47;4954782;28;20027;-66
2023/02/14 11:53:11;;;;;;;37.17;20.08;;;;;;;-142.75;76.27;77865.75;4954500;28;20535;-66